createdAt,value
2018-10-04T00:01:08.536Z,7.83
2018-10-04T00:03:41.815Z,7.43
2018-10-04T00:06:14.536Z,8.23
2018-10-04T00:08:46.952Z,8.03
2018-10-04T00:11:21.580Z,7.43
2018-10-04T00:13:54.216Z,7.30
2018-10-04T00:16:28.929Z,7.43
2018-10-04T00:19:03.943Z,8.17
2018-10-04T00:21:37.256Z,8.90
2018-10-04T00:24:19.629Z,8.47
2018-10-04T00:26:53.373Z,10.17
2018-10-04T00:29:26.735Z,7.33
2018-10-04T00:31:59.608Z,8.57
2018-10-04T00:34:32.168Z,8.37
2018-10-04T00:37:05.580Z,7.13
2018-10-04T00:39:40.972Z,9.07
2018-10-04T00:42:14.919Z,7.67
2018-10-04T00:44:47.980Z,8.63
2018-10-04T00:47:23.753Z,9.53
2018-10-04T00:49:58.193Z,10.82
2018-10-04T00:52:30.841Z,9.60
2018-10-04T00:55:05.430Z,9.63
2018-10-04T00:57:38.791Z,7.70
2018-10-04T01:00:13.544Z,8.60
2018-10-04T01:02:46.372Z,8.20
2018-10-04T01:05:19.009Z,8.10
2018-10-04T01:07:51.739Z,8.10
2018-10-04T01:10:24.968Z,7.57
2018-10-04T01:12:58.403Z,6.13
2018-10-04T01:15:31.892Z,7.33
2018-10-04T01:18:28.195Z,6.50
2018-10-04T01:21:02.532Z,7.00
2018-10-04T01:23:35.649Z,7.03
2018-10-04T01:26:09.602Z,8.20
2018-10-04T01:28:42.460Z,10.38
2018-10-04T01:31:15.600Z,8.37
2018-10-04T01:33:49.816Z,7.70
2018-10-04T01:36:23.172Z,7.17
2018-10-04T01:38:56.342Z,6.87
2018-10-04T01:41:29.172Z,8.93
2018-10-04T01:44:01.441Z,7.67
2018-10-04T01:46:33.838Z,7.83
2018-10-04T01:49:06.752Z,8.20
2018-10-04T01:51:46.554Z,10.53
2018-10-04T01:54:20.211Z,12.70
2018-10-04T01:56:52.850Z,15.70
2018-10-04T01:59:25.188Z,16.73
2018-10-04T02:01:57.847Z,16.30
2018-10-04T02:04:30.536Z,16.47
2018-10-04T02:07:02.911Z,14.73
2018-10-04T02:09:35.742Z,13.97
2018-10-04T02:12:08.663Z,12.53
2018-10-04T02:14:44.380Z,11.73
2018-10-04T02:17:16.808Z,10.83
2018-10-04T02:19:50.113Z,10.40
2018-10-04T02:22:22.468Z,10.43
2018-10-04T02:24:54.720Z,10.67
2018-10-04T02:27:27.458Z,10.87
2018-10-04T02:29:59.720Z,9.17
2018-10-04T02:32:32.095Z,9.10
2018-10-04T02:35:04.795Z,9.27
2018-10-04T02:37:38.039Z,8.57
2018-10-04T02:40:10.336Z,10.25
2018-10-04T02:42:43.212Z,10.55
2018-10-04T02:45:17.608Z,8.63
2018-10-04T02:47:50.086Z,9.63
2018-10-04T02:50:23.024Z,9.57
2018-10-04T02:52:55.405Z,8.40
2018-10-04T02:55:33.867Z,9.10
2018-10-04T02:58:07.679Z,8.20
2018-10-04T03:00:40.159Z,9.17
2018-10-04T03:03:12.961Z,10.07
2018-10-04T03:05:45.997Z,9.30
2018-10-04T03:08:18.872Z,9.30
2018-10-04T03:10:53.377Z,9.53
2018-10-04T03:13:25.749Z,9.83
2018-10-04T03:15:58.005Z,9.67
2018-10-04T03:18:31.744Z,10.20
2018-10-04T03:21:04.087Z,9.67
2018-10-04T03:23:36.557Z,9.27
2018-10-04T03:26:09.325Z,10.07
2018-10-04T03:28:41.833Z,10.33
2018-10-04T03:31:14.338Z,9.10
2018-10-04T03:33:47.291Z,9.93
2018-10-04T03:36:19.841Z,9.37
2018-10-04T03:38:52.633Z,9.60
2018-10-04T03:41:26.688Z,10.10
2018-10-04T03:43:59.569Z,9.63
2018-10-04T03:46:32.025Z,10.50
2018-10-04T03:49:06.997Z,9.80
2018-10-04T03:51:40.267Z,9.27
2018-10-04T03:54:12.932Z,10.77
2018-10-04T03:56:48.105Z,10.60
2018-10-04T03:59:20.660Z,9.30
2018-10-04T04:01:54.274Z,9.00
2018-10-04T04:04:29.933Z,9.60
2018-10-04T04:07:03.033Z,9.47
2018-10-04T04:09:36.452Z,8.83
2018-10-04T04:12:09.215Z,10.20
2018-10-04T04:14:42.087Z,11.20
2018-10-04T04:17:14.624Z,10.10
2018-10-04T04:19:48.409Z,9.10
2018-10-04T04:22:21.635Z,9.13
2018-10-04T04:24:56.341Z,9.60
2018-10-04T04:27:29.864Z,9.87
2018-10-04T04:30:05.302Z,10.87
2018-10-04T04:32:38.100Z,10.27
2018-10-04T04:35:11.688Z,10.60
2018-10-04T04:37:46.263Z,10.98
2018-10-04T04:40:21.240Z,9.90
2018-10-04T04:42:56.009Z,11.10
2018-10-04T04:45:30.216Z,11.68
2018-10-04T04:48:03.678Z,9.40
2018-10-04T04:50:39.369Z,11.27
2018-10-04T04:53:31.482Z,10.20
2018-10-04T04:56:04.081Z,9.77
2018-10-04T04:58:38.875Z,11.00
2018-10-04T05:01:11.760Z,11.07
2018-10-04T05:03:46.393Z,11.12
2018-10-04T05:06:20.788Z,10.90
2018-10-04T05:08:53.281Z,10.43
2018-10-04T05:11:25.976Z,10.07
2018-10-04T05:13:59.599Z,9.87
2018-10-04T05:16:33.881Z,11.43
2018-10-04T05:19:06.686Z,10.70
2018-10-04T05:21:40.108Z,11.20
2018-10-04T05:24:13.822Z,10.98
2018-10-04T05:26:49.084Z,10.87
2018-10-04T05:29:23.488Z,10.60
2018-10-04T05:32:00.408Z,10.20
2018-10-04T05:34:33.206Z,10.37
2018-10-04T05:37:07.098Z,10.33
2018-10-04T05:39:40.451Z,11.88
2018-10-04T05:42:13.399Z,10.60
2018-10-04T05:44:46.461Z,10.57
2018-10-04T05:47:21.876Z,10.00
2018-10-04T05:49:57.464Z,9.43
2018-10-04T05:52:31.864Z,8.53
2018-10-04T05:55:05.734Z,9.70
2018-10-04T05:57:39.136Z,8.40
2018-10-04T06:00:49.166Z,9.40
2018-10-04T06:03:26.325Z,8.47
2018-10-04T06:05:58.764Z,8.90
2018-10-04T06:08:34.742Z,8.60
2018-10-04T06:11:09.857Z,8.70
2018-10-04T06:13:45.169Z,9.00
2018-10-04T06:16:18.768Z,8.68
2018-10-04T06:18:51.816Z,8.10
2018-10-04T06:21:35.409Z,7.93
2018-10-04T06:24:09.611Z,8.63
2018-10-04T06:26:46.546Z,7.20
2018-10-04T06:29:20.041Z,7.67
2018-10-04T06:31:55.811Z,7.50
2018-10-04T06:34:29.126Z,7.30
2018-10-04T06:37:03.253Z,7.00
2018-10-04T06:39:39.195Z,5.63
2018-10-04T06:42:12.172Z,6.67
2018-10-04T06:44:44.732Z,6.20
2018-10-04T06:47:18.815Z,7.13
2018-10-04T06:49:57.465Z,6.45
2018-10-04T06:52:39.865Z,5.97
2018-10-04T06:55:14.160Z,6.93
2018-10-04T06:57:48.139Z,5.80
2018-10-04T07:00:25.716Z,6.00
2018-10-04T07:03:00.733Z,4.73
2018-10-04T07:05:36.309Z,5.87
2018-10-04T07:08:11.312Z,6.40
2018-10-04T07:10:45.934Z,6.03
2018-10-04T07:13:20.080Z,8.83
2018-10-04T07:15:59.551Z,5.87
2018-10-04T07:18:33.479Z,6.50
2018-10-04T07:21:07.402Z,6.17
2018-10-04T07:23:41.169Z,6.10
2018-10-04T07:26:16.493Z,6.80
2018-10-04T07:28:51.867Z,6.23
2018-10-04T07:31:31.035Z,5.93
2018-10-04T07:34:07.160Z,6.23
2018-10-04T07:36:46.504Z,6.77
2018-10-04T07:39:37.954Z,6.87
2018-10-04T07:42:12.998Z,7.47
2018-10-04T07:44:50.682Z,6.87
2018-10-04T07:47:30.019Z,6.53
2018-10-04T07:50:03.834Z,7.60
2018-10-04T07:52:43.073Z,6.57
2018-10-04T07:55:29.530Z,6.57
2018-10-04T07:58:05.376Z,6.30
2018-10-04T08:00:40.801Z,6.27
2018-10-04T08:03:15.689Z,5.83
2018-10-04T08:05:49.782Z,5.90
2018-10-04T08:08:24.824Z,6.57
2018-10-04T08:11:01.757Z,6.40
2018-10-04T08:13:39.730Z,6.20
2018-10-04T08:16:15.997Z,6.10
2018-10-04T08:18:51.623Z,6.55
2018-10-04T08:21:26.559Z,6.63
2018-10-04T08:24:05.978Z,6.37
2018-10-04T08:26:42.037Z,6.63
2018-10-04T08:29:19.249Z,6.87
2018-10-04T08:32:00.021Z,6.60
2018-10-04T08:34:34.956Z,7.30
2018-10-04T08:37:17.504Z,6.60
2018-10-04T08:39:51.632Z,6.80
2018-10-04T08:42:25.498Z,7.33
2018-10-04T08:45:04.413Z,6.83
2018-10-04T08:47:38.720Z,6.83
2018-10-04T08:50:16.411Z,7.40
2018-10-04T08:53:01.552Z,5.83
2018-10-04T08:55:37.560Z,7.80
2018-10-04T08:58:14.059Z,7.37
2018-10-04T09:00:47.980Z,7.47
2018-10-04T09:03:21.371Z,6.77
2018-10-04T09:05:56.362Z,7.12
2018-10-04T09:08:31.109Z,7.37
2018-10-04T09:11:06.885Z,7.00
2018-10-04T09:13:48.340Z,6.70
2018-10-04T09:16:24.481Z,7.07
2018-10-04T09:19:01.449Z,6.70
2018-10-04T09:21:36.820Z,6.30
2018-10-04T09:24:18.444Z,6.87
2018-10-04T09:26:59.367Z,7.07
2018-10-04T09:29:45.376Z,7.27
2018-10-04T09:32:24.524Z,6.40
2018-10-04T09:35:09.639Z,6.43
2018-10-04T09:37:45.999Z,6.73
2018-10-04T09:40:22.667Z,6.33
2018-10-04T09:43:02.026Z,7.60
2018-10-04T09:45:40.608Z,7.20
2018-10-04T09:48:21.565Z,6.70
2018-10-04T09:51:08.654Z,6.87
2018-10-04T09:53:51.516Z,7.20
2018-10-04T09:56:31.466Z,7.37
2018-10-04T09:59:06.490Z,7.00
2018-10-04T10:01:46.297Z,6.30
2018-10-04T10:04:19.898Z,6.53
2018-10-04T10:06:52.674Z,7.10
2018-10-04T10:09:26.968Z,6.20
2018-10-04T10:12:00.744Z,6.03
2018-10-04T10:14:34.565Z,5.73
2018-10-04T10:17:07.396Z,6.03
2018-10-04T10:19:39.927Z,5.50
2018-10-04T10:22:13.336Z,5.65
2018-10-04T10:24:47.508Z,5.70
2018-10-04T10:27:21.161Z,5.33
2018-10-04T10:29:56.601Z,5.80
2018-10-04T10:32:31.128Z,5.60
2018-10-04T10:35:03.660Z,4.70
2018-10-04T10:37:36.188Z,4.70
2018-10-04T10:40:10.379Z,4.83
2018-10-04T10:42:42.993Z,4.60
2018-10-04T10:45:17.952Z,4.70
2018-10-04T10:47:52.695Z,4.30
2018-10-04T10:50:25.788Z,4.40
2018-10-04T10:53:00.337Z,4.47
2018-10-04T10:55:33.134Z,4.00
2018-10-04T10:58:05.792Z,4.07
2018-10-04T11:00:40.245Z,4.50
2018-10-04T11:03:14.271Z,3.90
2018-10-04T11:05:48.329Z,4.27
2018-10-04T11:08:24.355Z,4.07
2018-10-04T11:10:58.107Z,4.30
2018-10-04T11:13:33.076Z,5.23
2018-10-04T11:16:08.999Z,4.67
2018-10-04T11:18:43.528Z,4.77
2018-10-04T11:21:16.403Z,4.93
2018-10-04T11:23:52.279Z,5.03
2018-10-04T11:26:24.842Z,4.53
2018-10-04T11:28:57.353Z,3.97
2018-10-04T11:31:32.296Z,4.87
2018-10-04T11:34:05.081Z,4.60
2018-10-04T11:36:39.679Z,4.07
2018-10-04T11:39:12.773Z,3.87
2018-10-04T11:41:47.345Z,4.60
2018-10-04T11:44:23.443Z,4.83
2018-10-04T11:47:02.449Z,5.37
2018-10-04T11:49:35.637Z,6.17
2018-10-04T11:52:13.858Z,4.63
2018-10-04T11:54:46.830Z,5.00
2018-10-04T11:57:20.793Z,4.87
2018-10-04T11:59:55.113Z,5.10
2018-10-04T12:02:31.404Z,4.90
2018-10-04T12:05:07.177Z,5.07
2018-10-04T12:07:40.073Z,5.30
2018-10-04T12:10:13.595Z,5.80
2018-10-04T12:12:48.495Z,4.77
2018-10-04T12:15:21.555Z,5.53
2018-10-04T12:17:54.025Z,5.80
2018-10-04T12:20:27.675Z,5.07
2018-10-04T12:23:04.173Z,5.27
2018-10-04T12:25:36.758Z,5.87
2018-10-04T12:28:09.339Z,5.47
2018-10-04T12:30:41.997Z,5.57
2018-10-04T12:33:15.918Z,5.07
2018-10-04T12:35:48.949Z,5.10
2018-10-04T12:38:23.286Z,5.27
2018-10-04T12:40:58.390Z,5.47
2018-10-04T12:43:38.084Z,5.10
2018-10-04T12:46:11.333Z,5.17
2018-10-04T12:48:45.268Z,5.32
2018-10-04T12:51:18.125Z,4.90
2018-10-04T12:53:51.336Z,5.03
2018-10-04T12:56:24.401Z,5.47
2018-10-04T12:58:57.651Z,5.57
2018-10-04T13:01:30.352Z,5.20
2018-10-04T13:04:03.311Z,5.90
2018-10-04T13:06:37.759Z,5.53
2018-10-04T13:09:13.938Z,6.50
2018-10-04T13:11:48.208Z,6.30
2018-10-04T13:14:23.374Z,4.80
2018-10-04T13:16:56.065Z,6.00
2018-10-04T13:19:28.830Z,5.47
2018-10-04T13:22:06.857Z,5.10
2018-10-04T13:24:39.887Z,5.70
2018-10-04T13:27:13.629Z,5.82
2018-10-04T13:29:47.878Z,5.57
2018-10-04T13:32:21.082Z,6.03
2018-10-04T13:34:54.729Z,5.70
2018-10-04T13:37:30.825Z,5.80
2018-10-04T13:40:03.486Z,6.30
2018-10-04T13:42:37.248Z,6.83
2018-10-04T13:45:10.579Z,6.63
2018-10-04T13:47:45.324Z,6.77
2018-10-04T13:50:18.904Z,6.57
2018-10-04T13:52:51.462Z,5.93
2018-10-04T13:55:25.498Z,7.28
2018-10-04T13:57:59.830Z,7.70
2018-10-04T14:00:32.577Z,7.20
2018-10-04T14:03:06.120Z,7.17
2018-10-04T14:05:40.284Z,7.33
2018-10-04T14:08:13.498Z,6.50
2018-10-04T14:10:47.241Z,6.03
2018-10-04T14:13:20.672Z,5.65
2018-10-04T14:15:55.087Z,5.43
2018-10-04T14:18:29.901Z,5.20
2018-10-04T14:21:04.545Z,5.70
2018-10-04T14:23:39.003Z,5.17
2018-10-04T14:26:11.678Z,4.70
2018-10-04T14:28:44.388Z,4.60
2018-10-04T14:31:18.489Z,4.75
2018-10-04T14:33:51.065Z,4.73
2018-10-04T14:36:24.657Z,4.37
2018-10-04T14:38:58.458Z,6.20
2018-10-04T14:41:31.092Z,5.17
2018-10-04T14:44:03.766Z,5.27
2018-10-04T14:46:39.819Z,4.93
2018-10-04T14:49:14.389Z,5.17
2018-10-04T14:51:47.236Z,5.03
2018-10-04T14:54:21.814Z,4.53
2018-10-04T14:56:58.528Z,5.10
2018-10-04T14:59:31.164Z,5.30
2018-10-04T15:02:06.640Z,5.82
2018-10-04T15:04:40.140Z,5.40
2018-10-04T15:07:13.006Z,5.50
2018-10-04T15:09:48.037Z,5.23
2018-10-04T15:12:21.608Z,5.60
2018-10-04T15:14:57.561Z,5.20
2018-10-04T15:17:31.757Z,5.17
2018-10-04T15:20:06.306Z,5.10
2018-10-04T15:22:39.198Z,4.50
2018-10-04T15:25:14.770Z,4.83
2018-10-04T15:27:50.674Z,4.70
2018-10-04T15:30:23.659Z,4.40
2018-10-04T15:32:58.933Z,4.10
2018-10-04T15:35:32.945Z,4.00
2018-10-04T15:38:11.905Z,4.43
2018-10-04T15:40:45.275Z,4.23
2018-10-04T15:43:20.018Z,4.40
2018-10-04T15:45:54.330Z,4.40
2018-10-04T15:48:27.067Z,4.43
2018-10-04T15:50:59.805Z,4.40
2018-10-04T15:53:33.407Z,4.77
2018-10-04T15:56:16.330Z,4.27
2018-10-04T15:58:56.800Z,4.13
2018-10-04T16:01:32.961Z,4.40
2018-10-04T16:04:08.017Z,4.40
2018-10-04T16:06:45.559Z,4.57
2018-10-04T16:09:27.810Z,4.30
2018-10-04T16:12:03.308Z,5.33
2018-10-04T16:14:40.749Z,4.80
2018-10-04T16:17:14.823Z,4.63
2018-10-04T16:19:50.005Z,4.60
2018-10-04T16:22:27.799Z,4.77
2018-10-04T16:25:04.656Z,4.70
2018-10-04T16:27:44.926Z,4.63
2018-10-04T16:30:18.349Z,4.80
2018-10-04T16:32:55.299Z,5.00
2018-10-04T16:35:30.072Z,5.07
2018-10-04T16:38:07.304Z,5.18
2018-10-04T16:40:40.726Z,5.40
2018-10-04T16:43:13.497Z,4.60
2018-10-04T16:45:46.343Z,5.40
2018-10-04T16:48:22.064Z,5.00
2018-10-04T16:50:57.497Z,5.60
2018-10-04T16:53:30.205Z,5.30
2018-10-04T16:56:03.203Z,4.73
2018-10-04T16:58:36.484Z,5.30
2018-10-04T17:01:09.152Z,5.47
2018-10-04T17:03:44.196Z,6.03
2018-10-04T17:06:18.154Z,5.62
2018-10-04T17:08:52.883Z,4.83
2018-10-04T17:11:29.148Z,5.10
2018-10-04T17:14:03.096Z,4.73
2018-10-04T17:16:41.355Z,5.23
2018-10-04T17:19:17.942Z,5.50
2018-10-04T17:21:52.274Z,5.23
2018-10-04T17:24:30.514Z,5.60
2018-10-04T17:27:07.601Z,6.47
2018-10-04T17:29:42.859Z,6.37
2018-10-04T17:32:16.943Z,6.47
2018-10-04T17:34:51.216Z,6.83
2018-10-04T17:37:25.570Z,6.83
2018-10-04T17:40:00.259Z,6.53
2018-10-04T17:42:39.461Z,6.47
2018-10-04T17:45:21.912Z,7.83
2018-10-04T17:47:58.214Z,6.33
2018-10-04T17:50:42.774Z,7.13
2018-10-04T17:53:27.724Z,7.07
2018-10-04T17:56:08.770Z,6.47
2018-10-04T17:58:55.177Z,7.70
2018-10-04T18:01:30.163Z,6.47
2018-10-04T18:04:04.248Z,6.77
2018-10-04T18:06:37.605Z,6.47
2018-10-04T18:09:11.405Z,6.23
2018-10-04T18:11:50.849Z,5.77
2018-10-04T18:14:25.197Z,7.15
2018-10-04T18:17:06.327Z,7.43
2018-10-04T18:19:41.677Z,5.97
2018-10-04T18:22:22.491Z,6.77
2018-10-04T18:24:55.909Z,6.83
2018-10-04T18:27:34.409Z,5.60
2018-10-04T18:30:10.332Z,7.40
2018-10-04T18:32:49.028Z,6.50
2018-10-04T18:35:24.933Z,7.23
2018-10-04T18:38:03.368Z,6.00
2018-10-04T18:40:35.930Z,6.53
2018-10-04T18:43:10.567Z,7.43
2018-10-04T18:45:43.233Z,6.97
2018-10-04T18:48:15.983Z,6.97
2018-10-04T18:50:48.722Z,6.77
2018-10-04T18:53:23.928Z,6.27
2018-10-04T18:55:58.756Z,7.40
2018-10-04T18:58:36.049Z,6.77
2018-10-04T19:01:16.131Z,7.37
2018-10-04T19:03:50.524Z,8.40
2018-10-04T19:06:24.741Z,8.13
2018-10-04T19:09:01.132Z,9.13
2018-10-04T19:11:35.478Z,8.47
2018-10-04T19:14:09.397Z,7.67
2018-10-04T19:16:45.737Z,8.07
2018-10-04T19:19:24.347Z,7.50
2018-10-04T19:21:57.204Z,7.20
2018-10-04T19:24:31.007Z,9.07
2018-10-04T19:27:08.025Z,10.70
2018-10-04T19:29:42.321Z,10.03
2018-10-04T19:32:16.833Z,8.27
2018-10-04T19:34:56.299Z,9.77
2018-10-04T19:37:30.851Z,9.50
2018-10-04T19:40:07.333Z,13.35
2018-10-04T19:42:41.927Z,12.20
2018-10-04T19:45:20.003Z,10.90
2018-10-04T19:47:53.926Z,10.57
2018-10-04T19:50:28.048Z,12.23
2018-10-04T19:53:02.192Z,10.70
2018-10-04T19:55:37.168Z,8.87
2018-10-04T19:58:10.772Z,12.90
2018-10-04T20:00:43.890Z,9.83
2018-10-04T20:03:20.126Z,9.17
2018-10-04T20:05:53.106Z,8.60
2018-10-04T20:08:25.832Z,9.83
2018-10-04T20:10:59.199Z,10.73
2018-10-04T20:13:32.265Z,12.50
2018-10-04T20:16:10.067Z,12.97
2018-10-04T20:18:43.654Z,12.33
2018-10-04T20:21:17.837Z,11.47
2018-10-04T20:23:53.133Z,11.10
2018-10-04T20:26:34.378Z,10.37
2018-10-04T20:29:07.695Z,10.23
2018-10-04T20:31:44.525Z,12.40
2018-10-04T20:34:22.249Z,11.83
2018-10-04T20:36:55.750Z,11.20
2018-10-04T20:39:29.295Z,11.00
2018-10-04T20:42:02.814Z,11.10
2018-10-04T20:44:37.208Z,10.53
2018-10-04T20:47:15.813Z,10.70
2018-10-04T20:49:53.912Z,12.23
2018-10-04T20:52:29.020Z,13.65
2018-10-04T20:55:05.564Z,12.30
2018-10-04T20:57:39.455Z,10.83
2018-10-04T21:00:21.444Z,10.77
2018-10-04T21:02:56.333Z,10.90
2018-10-04T21:05:31.207Z,12.23
2018-10-04T21:08:06.796Z,11.87
2018-10-04T21:10:41.369Z,11.03
2018-10-04T21:13:15.708Z,11.47
2018-10-04T21:15:54.751Z,10.85
2018-10-04T21:18:31.153Z,9.83
2018-10-04T21:21:05.538Z,10.67
2018-10-04T21:23:42.776Z,9.70
2018-10-04T21:26:16.255Z,10.23
2018-10-04T21:28:48.916Z,11.15
2018-10-04T21:31:26.485Z,10.03
2018-10-04T21:33:59.745Z,9.83
2018-10-04T21:36:33.231Z,9.60
2018-10-04T21:39:08.432Z,10.30
2018-10-04T21:41:41.513Z,9.00
2018-10-04T21:44:14.225Z,10.10
2018-10-04T21:46:47.150Z,9.83
2018-10-04T21:49:20.704Z,10.40
2018-10-04T21:51:53.452Z,8.43
2018-10-04T21:54:28.028Z,7.93
2018-10-04T21:57:01.488Z,7.57
2018-10-04T21:59:40.269Z,6.90
2018-10-04T22:02:14.203Z,7.70
2018-10-04T22:04:58.808Z,6.63
2018-10-04T22:07:32.431Z,7.07
2018-10-04T22:10:05.036Z,6.90
2018-10-04T22:12:38.283Z,7.47
2018-10-04T22:15:13.755Z,6.80
2018-10-04T22:17:49.707Z,7.47
2018-10-04T22:20:25.059Z,6.53
2018-10-04T22:22:58.589Z,6.67
2018-10-04T22:25:32.872Z,6.13
2018-10-04T22:28:06.946Z,5.53
2018-10-04T22:30:41.266Z,6.17
2018-10-04T22:33:14.680Z,6.03
2018-10-04T22:35:50.194Z,6.32
2018-10-04T22:38:23.381Z,6.53
2018-10-04T22:40:57.460Z,6.20
2018-10-04T22:43:34.984Z,5.83
2018-10-04T22:46:10.684Z,5.57
2018-10-04T22:48:43.273Z,6.10
2018-10-04T22:51:16.104Z,5.60
2018-10-04T22:53:48.612Z,5.80
2018-10-04T22:56:21.268Z,6.23
2018-10-04T22:58:54.180Z,6.13
2018-10-04T23:01:27.329Z,5.63
2018-10-04T23:04:02.692Z,5.57
2018-10-04T23:06:36.021Z,5.90
2018-10-04T23:09:08.698Z,5.70
2018-10-04T23:11:41.232Z,6.00
2018-10-04T23:14:14.756Z,6.00
2018-10-04T23:16:47.959Z,5.93
2018-10-04T23:19:21.468Z,5.55
2018-10-04T23:21:54.596Z,5.60
2018-10-04T23:24:28.685Z,5.63
2018-10-04T23:27:01.139Z,5.97
2018-10-04T23:29:34.144Z,5.70
2018-10-04T23:32:06.755Z,5.37
2018-10-04T23:34:39.528Z,4.63
2018-10-04T23:37:12.480Z,5.77
2018-10-04T23:39:45.099Z,5.93
2018-10-04T23:42:17.668Z,5.90
2018-10-04T23:44:50.841Z,5.50
2018-10-04T23:47:24.410Z,5.83
2018-10-04T23:49:57.018Z,5.57
2018-10-04T23:52:30.002Z,5.23
2018-10-04T23:55:03.468Z,5.17
2018-10-04T23:57:35.960Z,5.30
